createdAt,value
2019-02-21T00:02:32.947Z,101709.73
2019-02-21T00:07:40.918Z,101711.17
2019-02-21T00:12:50.275Z,101702.92
2019-02-21T00:17:56.154Z,101706.78
2019-02-21T00:23:02.201Z,101703.02
2019-02-21T00:28:08.326Z,101701.52
2019-02-21T00:33:14.120Z,101703.55
2019-02-21T00:38:20.231Z,101700.83
2019-02-21T00:43:26.554Z,101709.05
2019-02-21T00:48:32.894Z,101700.11
2019-02-21T00:53:39.281Z,101701.03
2019-02-21T00:58:45.100Z,101700.12
2019-02-21T01:03:52.417Z,101697.02
2019-02-21T01:08:59.642Z,101694.28
2019-02-21T01:14:06.352Z,101697.09
2019-02-21T01:19:13.185Z,101695.52
2019-02-21T01:24:19.381Z,101692.95
2019-02-21T01:29:25.413Z,101691.63
2019-02-21T01:34:35.263Z,101690.17
2019-02-21T01:39:41.656Z,101684.58
2019-02-21T01:44:47.620Z,101673.47
2019-02-21T01:49:53.678Z,101673.67
2019-02-21T01:54:59.405Z,101669.99
2019-02-21T02:00:08.764Z,101664.84
2019-02-21T02:05:15.411Z,101665.30
2019-02-21T02:10:23.580Z,101668.78
2019-02-21T02:15:31.839Z,101676.07
2019-02-21T02:20:39.296Z,101664.06
2019-02-21T02:25:44.902Z,101671.23
2019-02-21T02:30:50.539Z,101667.33
2019-02-21T02:35:56.277Z,101653.59
2019-02-21T02:41:02.115Z,101656.59
2019-02-21T02:46:08.973Z,101656.59
2019-02-21T02:51:14.708Z,101654.37
2019-02-21T02:56:24.176Z,101658.86
2019-02-21T03:01:34.643Z,101658.94
2019-02-21T03:06:39.762Z,101651.61
2019-02-21T03:11:45.440Z,101659.05
2019-02-21T03:16:53.307Z,101666.06
2019-02-21T03:22:01.164Z,101662.87
2019-02-21T03:27:08.111Z,101670.58
2019-02-21T03:32:13.863Z,101674.44
2019-02-21T03:37:19.730Z,101671.71
2019-02-21T03:42:28.811Z,101673.45
2019-02-21T03:47:34.922Z,101682.97
2019-02-21T03:52:43.654Z,101680.66
2019-02-21T03:57:49.245Z,101677.98
2019-02-21T04:02:55.966Z,101676.43
2019-02-21T04:08:01.853Z,101678.98
2019-02-21T04:13:08.006Z,101671.30
2019-02-21T04:18:15.883Z,101676.44
2019-02-21T04:23:21.924Z,101680.83
2019-02-21T04:28:27.920Z,101677.08
2019-02-21T04:33:34.486Z,101676.96
2019-02-21T04:38:41.801Z,101665.03
2019-02-21T04:43:47.445Z,101681.53
2019-02-21T04:48:54.259Z,101674.97
2019-02-21T04:53:59.939Z,101672.58
2019-02-21T04:59:06.810Z,101675.02
2019-02-21T05:04:17.980Z,101669.48
2019-02-21T05:09:23.940Z,101674.17
2019-02-21T05:14:31.336Z,101670.38
2019-02-21T05:19:38.424Z,101662.21
2019-02-21T05:24:45.580Z,101662.05
2019-02-21T05:29:52.963Z,101664.00
2019-02-21T05:35:02.150Z,101668.59
2019-02-21T05:40:21.778Z,101664.00
2019-02-21T05:45:32.334Z,101647.73
2019-02-21T05:50:45.254Z,101658.09
2019-02-21T05:56:10.118Z,101654.41
2019-02-21T06:01:20.584Z,101652.98
2019-02-21T06:06:35.115Z,101651.45
2019-02-21T06:12:01.145Z,101655.27
2019-02-21T06:17:15.739Z,101649.97
2019-02-21T06:22:23.494Z,101650.73
2019-02-21T06:27:39.151Z,101649.75
2019-02-21T06:32:44.957Z,101645.95
2019-02-21T06:37:50.993Z,101653.52
2019-02-21T06:42:57.313Z,101653.82
2019-02-21T06:48:03.171Z,101640.20
2019-02-21T06:53:09.634Z,101653.80
2019-02-21T06:58:16.757Z,101645.95
2019-02-21T07:03:22.773Z,101653.61
2019-02-21T07:08:28.450Z,101642.80
2019-02-21T07:13:34.405Z,101644.13
2019-02-21T07:18:41.000Z,101646.66
2019-02-21T07:23:46.825Z,101651.45
2019-02-21T07:28:53.241Z,101658.44
2019-02-21T07:34:01.554Z,101662.70
2019-02-21T07:39:16.890Z,101670.48
2019-02-21T07:44:15.162Z,101679.80
2019-02-21T07:49:21.268Z,101680.91
2019-02-21T07:54:27.476Z,101689.61
2019-02-21T07:59:33.922Z,101697.92
2019-02-21T08:04:40.037Z,101695.86
2019-02-21T08:09:45.623Z,101702.71
2019-02-21T08:14:56.139Z,101705.37
2019-02-21T08:20:08.376Z,101705.24
2019-02-21T08:25:10.998Z,101716.55
2019-02-21T08:30:16.836Z,101709.55
2019-02-21T08:35:23.162Z,101710.08
2019-02-21T08:40:29.260Z,101709.66
2019-02-21T08:45:35.789Z,101705.52
2019-02-21T08:50:41.655Z,101701.70
2019-02-21T08:55:47.807Z,101706.30
2019-02-21T09:00:54.489Z,101715.06
2019-02-21T09:06:00.211Z,101710.66
2019-02-21T09:11:06.127Z,101712.05
2019-02-21T09:16:12.766Z,101711.33
2019-02-21T09:21:18.694Z,101701.91
2019-02-21T09:26:24.400Z,101702.28
2019-02-21T09:31:30.840Z,101704.55
2019-02-21T09:36:36.473Z,101702.95
2019-02-21T09:41:42.121Z,101695.72
2019-02-21T09:46:47.877Z,101697.06
2019-02-21T09:51:53.684Z,101688.23
2019-02-21T09:56:59.980Z,101690.23
2019-02-21T10:02:06.238Z,101688.95
2019-02-21T10:07:11.794Z,101689.81
2019-02-21T10:12:18.890Z,101701.05
2019-02-21T10:17:24.911Z,101685.88
2019-02-21T10:22:31.538Z,101671.30
2019-02-21T10:27:37.796Z,101667.06
2019-02-21T10:32:43.640Z,101664.52
2019-02-21T10:37:49.274Z,101658.94
2019-02-21T10:42:55.221Z,101664.87
2019-02-21T10:48:00.810Z,101652.43
2019-02-21T10:53:07.049Z,101648.55
2019-02-21T10:58:13.515Z,101638.86
2019-02-21T11:03:20.090Z,101656.09
2019-02-21T11:08:27.024Z,101637.30
2019-02-21T11:13:33.136Z,101652.72
2019-02-21T11:18:41.316Z,101629.11
2019-02-21T11:23:47.144Z,101625.67
2019-02-21T11:28:53.439Z,101607.20
2019-02-21T11:33:59.312Z,101595.58
2019-02-21T11:39:07.212Z,101587.67
2019-02-21T11:44:13.040Z,101588.16
2019-02-21T11:49:19.186Z,101582.04
2019-02-21T11:54:27.233Z,101574.77
2019-02-21T11:59:33.843Z,101569.64
2019-02-21T12:04:42.556Z,101575.73
2019-02-21T12:09:49.497Z,101574.42
2019-02-21T12:14:56.210Z,101590.70
2019-02-21T12:20:02.065Z,101579.16
2019-02-21T12:25:12.809Z,101582.28
2019-02-21T12:30:22.283Z,101579.84
2019-02-21T12:35:29.912Z,101583.27
2019-02-21T12:40:36.616Z,101580.39
2019-02-21T12:45:42.412Z,101603.45
2019-02-21T12:50:48.887Z,101595.29
2019-02-21T12:55:54.665Z,101610.38
2019-02-21T13:01:00.328Z,101595.13
2019-02-21T13:06:06.545Z,101600.63
2019-02-21T13:11:12.949Z,101604.39
2019-02-21T13:16:19.339Z,101613.09
2019-02-21T13:21:25.329Z,101601.97
2019-02-21T13:26:31.819Z,101601.11
2019-02-21T13:31:37.657Z,101593.86
2019-02-21T13:36:44.619Z,101580.98
2019-02-21T13:41:51.030Z,101571.13
2019-02-21T13:46:57.137Z,101565.40
2019-02-21T13:52:03.132Z,101575.39
2019-02-21T13:57:09.182Z,101571.05
2019-02-21T14:02:15.421Z,101591.20
2019-02-21T14:07:21.730Z,101598.05
2019-02-21T14:12:28.761Z,101599.97
2019-02-21T14:17:35.553Z,101595.02
2019-02-21T14:22:42.565Z,101592.98
2019-02-21T14:27:49.540Z,101606.95
2019-02-21T14:32:57.234Z,101614.20
2019-02-21T14:38:04.563Z,101602.34
2019-02-21T14:43:16.111Z,101601.46
2019-02-21T14:48:20.509Z,101604.86
2019-02-21T14:53:26.925Z,101604.94
2019-02-21T14:58:33.095Z,101606.84
2019-02-21T15:03:38.900Z,101605.02
2019-02-21T15:08:47.249Z,101606.09
2019-02-21T15:13:53.439Z,101586.67
2019-02-21T15:19:00.730Z,101589.89
2019-02-21T15:24:06.866Z,101582.86
2019-02-21T15:29:13.082Z,101576.02
2019-02-21T15:34:18.962Z,101580.77
2019-02-21T15:39:24.990Z,101597.48
2019-02-21T15:44:32.544Z,101590.68
2019-02-21T15:49:39.241Z,101604.50
2019-02-21T15:54:45.083Z,101596.95
2019-02-21T15:59:51.602Z,101598.25
2019-02-21T16:04:57.701Z,101594.86
2019-02-21T16:10:06.866Z,101593.80
2019-02-21T16:15:16.395Z,101586.72
2019-02-21T16:20:21.917Z,101590.14
2019-02-21T16:25:30.379Z,101590.02
2019-02-21T16:30:36.359Z,101584.36
2019-02-21T16:35:42.852Z,101585.66
2019-02-21T16:40:49.118Z,101592.77
2019-02-21T16:45:54.903Z,101595.47
2019-02-21T16:51:02.190Z,101600.39
2019-02-21T16:56:07.965Z,101602.03
2019-02-21T17:01:18.503Z,101603.94
2019-02-21T17:06:26.905Z,101592.56
2019-02-21T17:11:34.534Z,101605.34
2019-02-21T17:16:40.705Z,101609.83
2019-02-21T17:21:47.564Z,101615.04
2019-02-21T17:26:55.726Z,101616.72
2019-02-21T17:32:05.306Z,101621.23
2019-02-21T17:37:11.231Z,101629.20
2019-02-21T17:42:19.530Z,101628.17
2019-02-21T17:47:26.498Z,101629.53
2019-02-21T17:52:37.212Z,101625.30
2019-02-21T17:57:43.330Z,101651.83
2019-02-21T18:02:49.179Z,101650.06
2019-02-21T18:07:55.365Z,101658.69
2019-02-21T18:13:01.708Z,101660.67
2019-02-21T18:18:12.176Z,101675.70
2019-02-21T18:23:18.054Z,101664.48
2019-02-21T18:28:26.023Z,101663.59
2019-02-21T18:33:32.422Z,101670.84
2019-02-21T18:38:42.577Z,101668.80
2019-02-21T18:43:48.289Z,101665.05
2019-02-21T18:48:54.424Z,101661.43
2019-02-21T18:54:00.188Z,101663.20
2019-02-21T18:59:08.262Z,101660.95
2019-02-21T19:04:15.449Z,101660.47
2019-02-21T19:09:26.907Z,101662.62
2019-02-21T19:14:34.007Z,101658.72
2019-02-21T19:19:41.718Z,101663.91
2019-02-21T19:24:47.447Z,101663.52
2019-02-21T19:29:53.678Z,101667.22
2019-02-21T19:34:59.628Z,101666.58
2019-02-21T19:40:08.396Z,101657.50
2019-02-21T19:45:14.047Z,101664.08
2019-02-21T19:50:19.930Z,101668.59
2019-02-21T19:55:26.729Z,101662.33
2019-02-21T20:00:33.659Z,101658.53
2019-02-21T20:05:39.317Z,101658.45
2019-02-21T20:10:49.324Z,101659.73
2019-02-21T20:15:55.357Z,101664.75
2019-02-21T20:21:02.238Z,101674.23
2019-02-21T20:26:18.007Z,101668.31
2019-02-21T20:31:19.520Z,101668.41
2019-02-21T20:36:26.336Z,101663.94
2019-02-21T20:41:32.184Z,101668.59
2019-02-21T20:46:38.420Z,101686.80
2019-02-21T20:51:44.197Z,101686.83
2019-02-21T20:56:50.456Z,101681.00
2019-02-21T21:01:56.197Z,101688.41
2019-02-21T21:07:05.126Z,101682.02
2019-02-21T21:12:11.353Z,101684.19
2019-02-21T21:17:19.711Z,101691.95
2019-02-21T21:22:25.388Z,101695.59
2019-02-21T21:27:31.343Z,101698.34
2019-02-21T21:32:39.618Z,101710.34
2019-02-21T21:37:47.429Z,101718.45
2019-02-21T21:42:55.637Z,101716.01
2019-02-21T21:48:01.473Z,101727.70
2019-02-21T21:53:10.593Z,101725.70
2019-02-21T21:58:16.557Z,101732.84
2019-02-21T22:03:28.973Z,101730.09
2019-02-21T22:08:36.253Z,101740.25
2019-02-21T22:13:42.764Z,101744.28
2019-02-21T22:18:48.363Z,101739.35
2019-02-21T22:23:54.572Z,101754.09
2019-02-21T22:29:01.962Z,101748.31
2019-02-21T22:34:09.123Z,101753.46
2019-02-21T22:39:16.515Z,101760.69
2019-02-21T22:44:23.029Z,101754.34
2019-02-21T22:49:29.061Z,101770.91
2019-02-21T22:54:35.313Z,101773.98
2019-02-21T22:59:41.906Z,101771.52
2019-02-21T23:04:53.822Z,101781.97
2019-02-21T23:09:59.700Z,101786.13
2019-02-21T23:15:06.866Z,101788.38
2019-02-21T23:20:12.487Z,101792.13
2019-02-21T23:25:19.221Z,101799.73
2019-02-21T23:30:26.479Z,101805.22
2019-02-21T23:35:32.387Z,101811.53
2019-02-21T23:40:38.582Z,101806.79
2019-02-21T23:45:48.486Z,101814.03
2019-02-21T23:50:54.227Z,101817.29
2019-02-21T23:56:00.052Z,101818.44
